sensor_id;sensor_type;location;lat;lon;timestamp;P1;durP1;ratioP1;P2;durP2;ratioP2
29044;SDS011;16133;49.486;12.176;2022-08-21T00:02:49;20.73;;;11.38;;
29044;SDS011;16133;49.486;12.176;2022-08-21T00:05:17;20.02;;;10.85;;
29044;SDS011;16133;49.486;12.176;2022-08-21T00:07:43;21.13;;;10.75;;
29044;SDS011;16133;49.486;12.176;2022-08-21T00:10:09;18.50;;;11.05;;
29044;SDS011;16133;49.486;12.176;2022-08-21T00:12:36;19.92;;;11.05;;
29044;SDS011;16133;49.486;12.176;2022-08-21T00:15:03;16.92;;;9.18;;
29044;SDS011;16133;49.486;12.176;2022-08-21T00:17:30;18.88;;;10.50;;
29044;SDS011;16133;49.486;12.176;2022-08-21T00:19:56;16.25;;;9.13;;
29044;SDS011;16133;49.486;12.176;2022-08-21T00:22:21;15.40;;;9.35;;
29044;SDS011;16133;49.486;12.176;2022-08-21T00:24:46;16.08;;;9.65;;
29044;SDS011;16133;49.486;12.176;2022-08-21T00:27:15;23.88;;;12.90;;
29044;SDS011;16133;49.486;12.176;2022-08-21T00:29:40;24.08;;;12.80;;
29044;SDS011;16133;49.486;12.176;2022-08-21T00:32:05;23.15;;;12.23;;
29044;SDS011;16133;49.486;12.176;2022-08-21T00:34:31;27.52;;;14.27;;
29044;SDS011;16133;49.486;12.176;2022-08-21T00:36:56;24.92;;;12.57;;
29044;SDS011;16133;49.486;12.176;2022-08-21T00:39:22;30.60;;;13.95;;
29044;SDS011;16133;49.486;12.176;2022-08-21T00:41:47;28.98;;;13.25;;
29044;SDS011;16133;49.486;12.176;2022-08-21T00:44:13;23.60;;;12.65;;
29044;SDS011;16133;49.486;12.176;2022-08-21T00:46:39;22.40;;;12.35;;
29044;SDS011;16133;49.486;12.176;2022-08-21T00:49:06;21.40;;;11.68;;
29044;SDS011;16133;49.486;12.176;2022-08-21T00:51:36;19.95;;;11.90;;
29044;SDS011;16133;49.486;12.176;2022-08-21T00:54:17;18.50;;;10.85;;
29044;SDS011;16133;49.486;12.176;2022-08-21T00:56:49;24.98;;;12.52;;
29044;SDS011;16133;49.486;12.176;2022-08-21T01:01:45;26.48;;;13.85;;
29044;SDS011;16133;49.486;12.176;2022-08-21T01:04:11;27.27;;;14.75;;
29044;SDS011;16133;49.486;12.176;2022-08-21T01:06:36;23.17;;;12.85;;
29044;SDS011;16133;49.486;12.176;2022-08-21T01:09:02;31.98;;;15.02;;
29044;SDS011;16133;49.486;12.176;2022-08-21T01:11:28;33.97;;;16.08;;
29044;SDS011;16133;49.486;12.176;2022-08-21T01:13:53;26.92;;;14.05;;
29044;SDS011;16133;49.486;12.176;2022-08-21T01:16:20;23.90;;;12.63;;
29044;SDS011;16133;49.486;12.176;2022-08-21T01:18:47;28.08;;;14.60;;
29044;SDS011;16133;49.486;12.176;2022-08-21T01:21:15;24.95;;;13.23;;
29044;SDS011;16133;49.486;12.176;2022-08-21T01:23:46;23.70;;;12.50;;
29044;SDS011;16133;49.486;12.176;2022-08-21T01:26:14;17.92;;;10.90;;
29044;SDS011;16133;49.486;12.176;2022-08-21T01:28:47;17.63;;;10.50;;
29044;SDS011;16133;49.486;12.176;2022-08-21T01:31:17;17.63;;;9.93;;
29044;SDS011;16133;49.486;12.176;2022-08-21T01:33:47;17.70;;;9.63;;
29044;SDS011;16133;49.486;12.176;2022-08-21T01:36:12;15.90;;;9.70;;
29044;SDS011;16133;49.486;12.176;2022-08-21T01:38:37;17.27;;;9.98;;
29044;SDS011;16133;49.486;12.176;2022-08-21T01:41:03;19.63;;;10.75;;
29044;SDS011;16133;49.486;12.176;2022-08-21T01:43:28;15.95;;;9.77;;
29044;SDS011;16133;49.486;12.176;2022-08-21T01:45:53;19.88;;;11.63;;
29044;SDS011;16133;49.486;12.176;2022-08-21T01:48:19;19.13;;;10.75;;
29044;SDS011;16133;49.486;12.176;2022-08-21T01:50:44;15.88;;;9.23;;
29044;SDS011;16133;49.486;12.176;2022-08-21T01:53:09;14.77;;;9.27;;
29044;SDS011;16133;49.486;12.176;2022-08-21T01:55:35;15.75;;;9.10;;
29044;SDS011;16133;49.486;12.176;2022-08-21T01:58:00;15.77;;;9.35;;
29044;SDS011;16133;49.486;12.176;2022-08-21T02:00:25;16.58;;;9.55;;
29044;SDS011;16133;49.486;12.176;2022-08-21T02:02:51;16.75;;;9.48;;
29044;SDS011;16133;49.486;12.176;2022-08-21T02:05:17;16.25;;;9.13;;
29044;SDS011;16133;49.486;12.176;2022-08-21T02:07:45;20.35;;;10.23;;
29044;SDS011;16133;49.486;12.176;2022-08-21T02:10:14;25.27;;;11.07;;
29044;SDS011;16133;49.486;12.176;2022-08-21T02:12:42;62.30;;;16.90;;
29044;SDS011;16133;49.486;12.176;2022-08-21T02:15:07;88.57;;;23.73;;
29044;SDS011;16133;49.486;12.176;2022-08-21T02:17:51;46.13;;;15.63;;
29044;SDS011;16133;49.486;12.176;2022-08-21T02:20:20;66.35;;;20.75;;
29044;SDS011;16133;49.486;12.176;2022-08-21T02:22:50;81.25;;;22.67;;
29044;SDS011;16133;49.486;12.176;2022-08-21T02:25:16;48.38;;;17.95;;
29044;SDS011;16133;49.486;12.176;2022-08-21T02:27:44;84.28;;;23.75;;
29044;SDS011;16133;49.486;12.176;2022-08-21T02:30:16;96.68;;;24.02;;
29044;SDS011;16133;49.486;12.176;2022-08-21T02:32:46;43.83;;;17.83;;
29044;SDS011;16133;49.486;12.176;2022-08-21T02:35:12;33.95;;;15.07;;
29044;SDS011;16133;49.486;12.176;2022-08-21T02:37:48;62.95;;;20.42;;
29044;SDS011;16133;49.486;12.176;2022-08-21T02:40:14;38.10;;;17.33;;
29044;SDS011;16133;49.486;12.176;2022-08-21T02:42:41;38.05;;;16.48;;
29044;SDS011;16133;49.486;12.176;2022-08-21T02:45:08;28.92;;;14.02;;
29044;SDS011;16133;49.486;12.176;2022-08-21T02:47:34;26.23;;;13.48;;
29044;SDS011;16133;49.486;12.176;2022-08-21T02:49:59;27.02;;;13.65;;
29044;SDS011;16133;49.486;12.176;2022-08-21T02:52:25;25.33;;;12.52;;
29044;SDS011;16133;49.486;12.176;2022-08-21T02:54:50;31.13;;;14.38;;
29044;SDS011;16133;49.486;12.176;2022-08-21T02:57:15;30.65;;;14.23;;
29044;SDS011;16133;49.486;12.176;2022-08-21T02:59:41;31.65;;;14.57;;
29044;SDS011;16133;49.486;12.176;2022-08-21T03:02:06;42.10;;;15.73;;
29044;SDS011;16133;49.486;12.176;2022-08-21T03:04:32;46.75;;;17.38;;
29044;SDS011;16133;49.486;12.176;2022-08-21T03:06:57;79.63;;;22.85;;
29044;SDS011;16133;49.486;12.176;2022-08-21T03:09:23;48.35;;;17.23;;
29044;SDS011;16133;49.486;12.176;2022-08-21T03:11:49;82.60;;;23.35;;
29044;SDS011;16133;49.486;12.176;2022-08-21T03:14:15;51.35;;;19.05;;
29044;SDS011;16133;49.486;12.176;2022-08-21T03:16:40;51.65;;;18.27;;
29044;SDS011;16133;49.486;12.176;2022-08-21T03:19:07;44.97;;;16.75;;
29044;SDS011;16133;49.486;12.176;2022-08-21T03:21:32;66.18;;;20.25;;
29044;SDS011;16133;49.486;12.176;2022-08-21T03:23:58;61.00;;;20.15;;
29044;SDS011;16133;49.486;12.176;2022-08-21T03:26:23;110.03;;;26.10;;
29044;SDS011;16133;49.486;12.176;2022-08-21T03:28:49;95.30;;;25.52;;
29044;SDS011;16133;49.486;12.176;2022-08-21T03:31:15;122.00;;;26.13;;
29044;SDS011;16133;49.486;12.176;2022-08-21T03:33:41;87.28;;;24.80;;
29044;SDS011;16133;49.486;12.176;2022-08-21T03:36:07;54.47;;;18.10;;
29044;SDS011;16133;49.486;12.176;2022-08-21T03:38:33;56.45;;;18.67;;
29044;SDS011;16133;49.486;12.176;2022-08-21T03:41:01;62.50;;;19.88;;
29044;SDS011;16133;49.486;12.176;2022-08-21T03:43:27;54.67;;;18.00;;
29044;SDS011;16133;49.486;12.176;2022-08-21T03:45:53;64.53;;;21.25;;
29044;SDS011;16133;49.486;12.176;2022-08-21T03:48:19;53.28;;;17.55;;
29044;SDS011;16133;49.486;12.176;2022-08-21T03:50:44;54.70;;;18.85;;
29044;SDS011;16133;49.486;12.176;2022-08-21T03:53:11;90.30;;;24.67;;
29044;SDS011;16133;49.486;12.176;2022-08-21T03:55:38;106.45;;;24.70;;
29044;SDS011;16133;49.486;12.176;2022-08-21T03:58:03;55.95;;;18.15;;
29044;SDS011;16133;49.486;12.176;2022-08-21T04:00:28;40.22;;;15.63;;
29044;SDS011;16133;49.486;12.176;2022-08-21T04:02:54;51.70;;;17.55;;
29044;SDS011;16133;49.486;12.176;2022-08-21T04:05:20;57.13;;;17.63;;
29044;SDS011;16133;49.486;12.176;2022-08-21T04:07:59;53.92;;;19.85;;
29044;SDS011;16133;49.486;12.176;2022-08-21T04:10:26;50.83;;;18.92;;
29044;SDS011;16133;49.486;12.176;2022-08-21T04:12:53;50.60;;;18.25;;
29044;SDS011;16133;49.486;12.176;2022-08-21T04:15:21;49.03;;;18.95;;
29044;SDS011;16133;49.486;12.176;2022-08-21T04:17:47;51.53;;;19.17;;
29044;SDS011;16133;49.486;12.176;2022-08-21T04:20:13;74.35;;;23.10;;
29044;SDS011;16133;49.486;12.176;2022-08-21T04:22:39;50.53;;;18.80;;
29044;SDS011;16133;49.486;12.176;2022-08-21T04:25:05;52.05;;;19.83;;
29044;SDS011;16133;49.486;12.176;2022-08-21T04:27:32;58.17;;;21.00;;
29044;SDS011;16133;49.486;12.176;2022-08-21T04:29:57;44.00;;;17.52;;
29044;SDS011;16133;49.486;12.176;2022-08-21T04:32:23;53.78;;;19.58;;
29044;SDS011;16133;49.486;12.176;2022-08-21T04:34:49;52.47;;;20.70;;
29044;SDS011;16133;49.486;12.176;2022-08-21T04:37:14;60.22;;;22.55;;
29044;SDS011;16133;49.486;12.176;2022-08-21T04:39:40;49.15;;;18.85;;
29044;SDS011;16133;49.486;12.176;2022-08-21T04:42:06;46.35;;;18.08;;
29044;SDS011;16133;49.486;12.176;2022-08-21T04:44:32;45.20;;;18.20;;
29044;SDS011;16133;49.486;12.176;2022-08-21T04:46:58;48.38;;;17.23;;
29044;SDS011;16133;49.486;12.176;2022-08-21T04:49:23;40.95;;;16.70;;
29044;SDS011;16133;49.486;12.176;2022-08-21T04:51:48;49.45;;;18.77;;
29044;SDS011;16133;49.486;12.176;2022-08-21T04:54:17;99.82;;;26.83;;
29044;SDS011;16133;49.486;12.176;2022-08-21T04:56:46;47.67;;;18.13;;
29044;SDS011;16133;49.486;12.176;2022-08-21T04:59:20;54.28;;;19.42;;
29044;SDS011;16133;49.486;12.176;2022-08-21T05:01:49;70.07;;;26.23;;
29044;SDS011;16133;49.486;12.176;2022-08-21T05:04:16;47.45;;;20.02;;
29044;SDS011;16133;49.486;12.176;2022-08-21T05:06:47;40.90;;;18.13;;
29044;SDS011;16133;49.486;12.176;2022-08-21T05:09:16;44.72;;;19.15;;
29044;SDS011;16133;49.486;12.176;2022-08-21T05:11:43;57.92;;;23.55;;
29044;SDS011;16133;49.486;12.176;2022-08-21T05:14:09;62.42;;;23.65;;
29044;SDS011;16133;49.486;12.176;2022-08-21T05:16:36;64.82;;;23.88;;
29044;SDS011;16133;49.486;12.176;2022-08-21T05:19:01;48.55;;;19.85;;
29044;SDS011;16133;49.486;12.176;2022-08-21T05:21:27;60.17;;;23.65;;
29044;SDS011;16133;49.486;12.176;2022-08-21T05:23:52;54.72;;;23.45;;
29044;SDS011;16133;49.486;12.176;2022-08-21T05:26:17;42.92;;;19.20;;
29044;SDS011;16133;49.486;12.176;2022-08-21T05:28:42;56.92;;;22.25;;
29044;SDS011;16133;49.486;12.176;2022-08-21T05:31:08;61.92;;;23.30;;
29044;SDS011;16133;49.486;12.176;2022-08-21T05:33:33;52.15;;;20.13;;
29044;SDS011;16133;49.486;12.176;2022-08-21T05:35:58;41.25;;;19.30;;
29044;SDS011;16133;49.486;12.176;2022-08-21T05:38:24;55.67;;;23.45;;
29044;SDS011;16133;49.486;12.176;2022-08-21T05:40:52;51.17;;;21.75;;
29044;SDS011;16133;49.486;12.176;2022-08-21T05:43:18;59.25;;;22.67;;
29044;SDS011;16133;49.486;12.176;2022-08-21T05:45:43;49.53;;;20.98;;
29044;SDS011;16133;49.486;12.176;2022-08-21T05:50:43;41.17;;;18.25;;
29044;SDS011;16133;49.486;12.176;2022-08-21T05:53:10;42.05;;;19.05;;
29044;SDS011;16133;49.486;12.176;2022-08-21T05:55:37;39.75;;;19.13;;
29044;SDS011;16133;49.486;12.176;2022-08-21T05:58:03;47.58;;;21.08;;
29044;SDS011;16133;49.486;12.176;2022-08-21T06:00:29;39.83;;;19.42;;
29044;SDS011;16133;49.486;12.176;2022-08-21T06:02:54;48.13;;;21.92;;
29044;SDS011;16133;49.486;12.176;2022-08-21T06:05:20;42.88;;;20.33;;
29044;SDS011;16133;49.486;12.176;2022-08-21T06:07:45;38.85;;;19.98;;
29044;SDS011;16133;49.486;12.176;2022-08-21T06:10:11;38.92;;;18.63;;
29044;SDS011;16133;49.486;12.176;2022-08-21T06:12:36;50.58;;;23.02;;
29044;SDS011;16133;49.486;12.176;2022-08-21T06:15:02;48.08;;;20.50;;
29044;SDS011;16133;49.486;12.176;2022-08-21T06:17:28;47.38;;;21.23;;
29044;SDS011;16133;49.486;12.176;2022-08-21T06:19:53;43.15;;;20.55;;
29044;SDS011;16133;49.486;12.176;2022-08-21T06:22:19;43.88;;;20.08;;
29044;SDS011;16133;49.486;12.176;2022-08-21T06:24:45;41.40;;;19.10;;
29044;SDS011;16133;49.486;12.176;2022-08-21T06:27:10;44.78;;;19.48;;
29044;SDS011;16133;49.486;12.176;2022-08-21T06:29:35;43.03;;;19.92;;
29044;SDS011;16133;49.486;12.176;2022-08-21T06:32:02;36.53;;;17.88;;
29044;SDS011;16133;49.486;12.176;2022-08-21T06:34:28;61.65;;;25.00;;
29044;SDS011;16133;49.486;12.176;2022-08-21T06:36:53;48.53;;;22.92;;
29044;SDS011;16133;49.486;12.176;2022-08-21T06:39:18;47.83;;;23.15;;
29044;SDS011;16133;49.486;12.176;2022-08-21T06:41:44;51.58;;;24.27;;
29044;SDS011;16133;49.486;12.176;2022-08-21T06:44:09;56.20;;;26.25;;
29044;SDS011;16133;49.486;12.176;2022-08-21T06:46:35;59.53;;;25.10;;
29044;SDS011;16133;49.486;12.176;2022-08-21T06:49:00;52.38;;;23.65;;
29044;SDS011;16133;49.486;12.176;2022-08-21T06:51:26;48.85;;;21.90;;
29044;SDS011;16133;49.486;12.176;2022-08-21T06:53:52;49.13;;;22.52;;
29044;SDS011;16133;49.486;12.176;2022-08-21T06:56:17;53.47;;;22.40;;
29044;SDS011;16133;49.486;12.176;2022-08-21T06:58:43;45.20;;;21.25;;
29044;SDS011;16133;49.486;12.176;2022-08-21T07:01:08;71.97;;;26.73;;
29044;SDS011;16133;49.486;12.176;2022-08-21T07:03:35;78.78;;;30.50;;
29044;SDS011;16133;49.486;12.176;2022-08-21T07:06:03;81.20;;;29.20;;
29044;SDS011;16133;49.486;12.176;2022-08-21T07:08:30;52.42;;;24.75;;
29044;SDS011;16133;49.486;12.176;2022-08-21T07:10:56;64.97;;;27.20;;
29044;SDS011;16133;49.486;12.176;2022-08-21T07:13:23;49.97;;;24.58;;
29044;SDS011;16133;49.486;12.176;2022-08-21T07:15:48;50.53;;;24.50;;
29044;SDS011;16133;49.486;12.176;2022-08-21T07:18:14;52.35;;;24.55;;
29044;SDS011;16133;49.486;12.176;2022-08-21T07:20:40;56.78;;;26.00;;
29044;SDS011;16133;49.486;12.176;2022-08-21T07:23:08;47.85;;;22.98;;
29044;SDS011;16133;49.486;12.176;2022-08-21T07:25:36;51.30;;;24.17;;
29044;SDS011;16133;49.486;12.176;2022-08-21T07:28:01;55.95;;;27.27;;
29044;SDS011;16133;49.486;12.176;2022-08-21T07:30:27;53.20;;;26.02;;
29044;SDS011;16133;49.486;12.176;2022-08-21T07:32:53;45.78;;;24.83;;
29044;SDS011;16133;49.486;12.176;2022-08-21T07:35:18;46.15;;;23.38;;
29044;SDS011;16133;49.486;12.176;2022-08-21T07:37:45;47.85;;;24.42;;
29044;SDS011;16133;49.486;12.176;2022-08-21T07:40:11;43.55;;;23.15;;
29044;SDS011;16133;49.486;12.176;2022-08-21T07:42:44;51.63;;;25.63;;
29044;SDS011;16133;49.486;12.176;2022-08-21T07:45:11;43.63;;;23.90;;
29044;SDS011;16133;49.486;12.176;2022-08-21T07:47:37;40.05;;;21.45;;
29044;SDS011;16133;49.486;12.176;2022-08-21T07:50:03;42.95;;;23.17;;
29044;SDS011;16133;49.486;12.176;2022-08-21T07:52:29;41.90;;;24.38;;
29044;SDS011;16133;49.486;12.176;2022-08-21T07:54:55;43.53;;;23.77;;
29044;SDS011;16133;49.486;12.176;2022-08-21T07:57:20;42.45;;;23.73;;
29044;SDS011;16133;49.486;12.176;2022-08-21T07:59:45;43.05;;;24.23;;
29044;SDS011;16133;49.486;12.176;2022-08-21T08:02:21;39.80;;;22.90;;
29044;SDS011;16133;49.486;12.176;2022-08-21T08:04:53;44.92;;;22.50;;
29044;SDS011;16133;49.486;12.176;2022-08-21T08:07:19;47.38;;;24.70;;
29044;SDS011;16133;49.486;12.176;2022-08-21T08:09:44;39.63;;;23.08;;
29044;SDS011;16133;49.486;12.176;2022-08-21T08:12:10;37.60;;;20.67;;
29044;SDS011;16133;49.486;12.176;2022-08-21T08:14:36;39.67;;;22.17;;
29044;SDS011;16133;49.486;12.176;2022-08-21T08:17:01;36.97;;;22.10;;
29044;SDS011;16133;49.486;12.176;2022-08-21T08:19:27;43.15;;;23.25;;
29044;SDS011;16133;49.486;12.176;2022-08-21T08:21:53;39.25;;;22.25;;
29044;SDS011;16133;49.486;12.176;2022-08-21T08:24:19;43.30;;;23.73;;
29044;SDS011;16133;49.486;12.176;2022-08-21T08:26:44;36.90;;;19.25;;
29044;SDS011;16133;49.486;12.176;2022-08-21T08:29:09;36.72;;;21.30;;
29044;SDS011;16133;49.486;12.176;2022-08-21T08:31:35;38.38;;;21.55;;
29044;SDS011;16133;49.486;12.176;2022-08-21T08:34:00;31.83;;;17.98;;
29044;SDS011;16133;49.486;12.176;2022-08-21T08:36:32;41.75;;;22.42;;
29044;SDS011;16133;49.486;12.176;2022-08-21T08:38:59;35.90;;;19.98;;
29044;SDS011;16133;49.486;12.176;2022-08-21T08:41:25;30.88;;;17.05;;
29044;SDS011;16133;49.486;12.176;2022-08-21T08:43:52;28.25;;;17.20;;
29044;SDS011;16133;49.486;12.176;2022-08-21T08:46:20;27.48;;;17.73;;
29044;SDS011;16133;49.486;12.176;2022-08-21T08:49:11;24.80;;;16.60;;
29044;SDS011;16133;49.486;12.176;2022-08-21T08:51:47;32.72;;;19.13;;
29044;SDS011;16133;49.486;12.176;2022-08-21T08:56:44;25.45;;;16.15;;
29044;SDS011;16133;49.486;12.176;2022-08-21T08:59:18;21.05;;;14.10;;
29044;SDS011;16133;49.486;12.176;2022-08-21T09:01:49;24.88;;;15.57;;
29044;SDS011;16133;49.486;12.176;2022-08-21T09:04:18;27.20;;;17.17;;
29044;SDS011;16133;49.486;12.176;2022-08-21T09:07:01;21.08;;;13.20;;
29044;SDS011;16133;49.486;12.176;2022-08-21T09:09:51;23.63;;;14.77;;
29044;SDS011;16133;49.486;12.176;2022-08-21T09:15:46;24.85;;;15.75;;
29044;SDS011;16133;49.486;12.176;2022-08-21T09:29:17;21.00;;;14.15;;
29044;SDS011;16133;49.486;12.176;2022-08-21T09:31:47;401.75;;;129.52;;
29044;SDS011;16133;49.486;12.176;2022-08-21T09:34:12;245.77;;;82.85;;
29044;SDS011;16133;49.486;12.176;2022-08-21T09:36:54;138.52;;;46.63;;
29044;SDS011;16133;49.486;12.176;2022-08-21T09:39:24;81.90;;;31.45;;
29044;SDS011;16133;49.486;12.176;2022-08-21T09:42:04;30.30;;;18.38;;
29044;SDS011;16133;49.486;12.176;2022-08-21T09:44:33;24.65;;;15.73;;
29044;SDS011;16133;49.486;12.176;2022-08-21T09:47:05;25.45;;;17.05;;
29044;SDS011;16133;49.486;12.176;2022-08-21T09:49:32;23.60;;;15.90;;
29044;SDS011;16133;49.486;12.176;2022-08-21T09:52:00;21.17;;;14.55;;
29044;SDS011;16133;49.486;12.176;2022-08-21T09:54:30;23.83;;;15.45;;
29044;SDS011;16133;49.486;12.176;2022-08-21T09:57:11;20.58;;;14.00;;
29044;SDS011;16133;49.486;12.176;2022-08-21T10:02:40;22.65;;;14.20;;
29044;SDS011;16133;49.486;12.176;2022-08-21T10:05:16;21.73;;;14.50;;
29044;SDS011;16133;49.486;12.176;2022-08-21T10:10:18;24.63;;;14.95;;
29044;SDS011;16133;49.486;12.176;2022-08-21T10:21:17;21.90;;;15.50;;
29044;SDS011;16133;49.486;12.176;2022-08-21T10:24:07;19.00;;;13.05;;
29044;SDS011;16133;49.486;12.176;2022-08-21T10:29:33;23.58;;;16.73;;
29044;SDS011;16133;49.486;12.176;2022-08-21T10:35:08;15.73;;;11.52;;
29044;SDS011;16133;49.486;12.176;2022-08-21T10:40:29;14.82;;;9.98;;
29044;SDS011;16133;49.486;12.176;2022-08-21T10:51:13;17.70;;;12.65;;
29044;SDS011;16133;49.486;12.176;2022-08-21T10:53:57;18.40;;;13.18;;
29044;SDS011;16133;49.486;12.176;2022-08-21T10:56:31;15.88;;;11.13;;
29044;SDS011;16133;49.486;12.176;2022-08-21T11:01:44;14.77;;;11.15;;
29044;SDS011;16133;49.486;12.176;2022-08-21T11:04:25;13.50;;;9.60;;
29044;SDS011;16133;49.486;12.176;2022-08-21T11:06:59;13.32;;;9.82;;
29044;SDS011;16133;49.486;12.176;2022-08-21T11:09:29;16.35;;;10.27;;
29044;SDS011;16133;49.486;12.176;2022-08-21T11:11:56;18.40;;;14.02;;
29044;SDS011;16133;49.486;12.176;2022-08-21T11:17:15;18.83;;;12.75;;
29044;SDS011;16133;49.486;12.176;2022-08-21T11:26:17;16.58;;;11.68;;
29044;SDS011;16133;49.486;12.176;2022-08-21T11:28:52;11.48;;;8.90;;
29044;SDS011;16133;49.486;12.176;2022-08-21T11:36:43;12.77;;;9.25;;
29044;SDS011;16133;49.486;12.176;2022-08-21T11:50:40;9.25;;;7.22;;
29044;SDS011;16133;49.486;12.176;2022-08-21T11:53:11;8.50;;;7.15;;
29044;SDS011;16133;49.486;12.176;2022-08-21T11:56:00;10.27;;;8.20;;
29044;SDS011;16133;49.486;12.176;2022-08-21T11:58:45;10.30;;;8.02;;
29044;SDS011;16133;49.486;12.176;2022-08-21T12:01:19;13.02;;;8.38;;
29044;SDS011;16133;49.486;12.176;2022-08-21T12:06:29;10.90;;;7.35;;
29044;SDS011;16133;49.486;12.176;2022-08-21T12:09:08;13.32;;;8.48;;
29044;SDS011;16133;49.486;12.176;2022-08-21T12:14:41;9.25;;;6.53;;
29044;SDS011;16133;49.486;12.176;2022-08-21T12:17:22;9.38;;;6.93;;
29044;SDS011;16133;49.486;12.176;2022-08-21T12:19:59;7.57;;;6.20;;
29044;SDS011;16133;49.486;12.176;2022-08-21T12:22:39;8.23;;;5.75;;
29044;SDS011;16133;49.486;12.176;2022-08-21T12:25:07;6.60;;;5.65;;
29044;SDS011;16133;49.486;12.176;2022-08-21T12:27:45;6.78;;;5.75;;
29044;SDS011;16133;49.486;12.176;2022-08-21T12:30:22;7.15;;;5.82;;
29044;SDS011;16133;49.486;12.176;2022-08-21T12:32:59;5.90;;;5.22;;
29044;SDS011;16133;49.486;12.176;2022-08-21T12:35:36;6.07;;;5.25;;
29044;SDS011;16133;49.486;12.176;2022-08-21T12:38:07;6.20;;;4.97;;
29044;SDS011;16133;49.486;12.176;2022-08-21T12:40:41;5.47;;;4.82;;
29044;SDS011;16133;49.486;12.176;2022-08-21T12:43:23;7.32;;;5.57;;
29044;SDS011;16133;49.486;12.176;2022-08-21T12:46:00;5.75;;;5.18;;
29044;SDS011;16133;49.486;12.176;2022-08-21T12:51:24;7.03;;;4.82;;
29044;SDS011;16133;49.486;12.176;2022-08-21T12:53:57;6.50;;;5.45;;
29044;SDS011;16133;49.486;12.176;2022-08-21T12:56:24;6.32;;;5.53;;
29044;SDS011;16133;49.486;12.176;2022-08-21T12:59:03;9.00;;;5.28;;
29044;SDS011;16133;49.486;12.176;2022-08-21T13:01:37;6.03;;;4.57;;
29044;SDS011;16133;49.486;12.176;2022-08-21T13:04:13;5.57;;;4.60;;
29044;SDS011;16133;49.486;12.176;2022-08-21T13:06:43;6.25;;;5.32;;
29044;SDS011;16133;49.486;12.176;2022-08-21T13:09:12;7.55;;;5.40;;
29044;SDS011;16133;49.486;12.176;2022-08-21T13:11:40;5.43;;;4.85;;
29044;SDS011;16133;49.486;12.176;2022-08-21T13:14:17;7.80;;;5.55;;
29044;SDS011;16133;49.486;12.176;2022-08-21T13:16:57;4.90;;;4.05;;
29044;SDS011;16133;49.486;12.176;2022-08-21T13:19:24;7.25;;;4.85;;
29044;SDS011;16133;49.486;12.176;2022-08-21T13:21:50;5.28;;;3.85;;
29044;SDS011;16133;49.486;12.176;2022-08-21T13:24:23;12.85;;;5.03;;
29044;SDS011;16133;49.486;12.176;2022-08-21T13:26:51;5.53;;;4.70;;
29044;SDS011;16133;49.486;12.176;2022-08-21T13:29:19;6.22;;;4.57;;
29044;SDS011;16133;49.486;12.176;2022-08-21T13:31:48;6.20;;;4.57;;
29044;SDS011;16133;49.486;12.176;2022-08-21T13:34:16;5.03;;;4.38;;
29044;SDS011;16133;49.486;12.176;2022-08-21T13:36:43;6.00;;;5.18;;
29044;SDS011;16133;49.486;12.176;2022-08-21T13:39:10;7.05;;;5.20;;
29044;SDS011;16133;49.486;12.176;2022-08-21T13:41:38;8.98;;;5.63;;
29044;SDS011;16133;49.486;12.176;2022-08-21T13:46:46;7.88;;;5.35;;
29044;SDS011;16133;49.486;12.176;2022-08-21T13:49:17;7.50;;;5.35;;
29044;SDS011;16133;49.486;12.176;2022-08-21T13:51:44;8.98;;;5.57;;
29044;SDS011;16133;49.486;12.176;2022-08-21T13:54:51;7.15;;;5.32;;
29044;SDS011;16133;49.486;12.176;2022-08-21T13:57:14;6.55;;;4.97;;
29044;SDS011;16133;49.486;12.176;2022-08-21T13:59:44;6.68;;;4.75;;
29044;SDS011;16133;49.486;12.176;2022-08-21T14:05:01;6.15;;;4.78;;
29044;SDS011;16133;49.486;12.176;2022-08-21T14:07:33;6.68;;;4.65;;
29044;SDS011;16133;49.486;12.176;2022-08-21T14:10:11;7.75;;;4.70;;
29044;SDS011;16133;49.486;12.176;2022-08-21T14:12:48;6.38;;;5.15;;
29044;SDS011;16133;49.486;12.176;2022-08-21T14:15:18;6.60;;;4.78;;
29044;SDS011;16133;49.486;12.176;2022-08-21T14:17:48;6.05;;;4.63;;
29044;SDS011;16133;49.486;12.176;2022-08-21T14:23:24;6.28;;;5.00;;
29044;SDS011;16133;49.486;12.176;2022-08-21T14:25:50;6.30;;;4.40;;
29044;SDS011;16133;49.486;12.176;2022-08-21T14:28:24;9.18;;;5.25;;
29044;SDS011;16133;49.486;12.176;2022-08-21T14:30:52;7.00;;;4.85;;
29044;SDS011;16133;49.486;12.176;2022-08-21T14:33:21;5.95;;;4.75;;
29044;SDS011;16133;49.486;12.176;2022-08-21T14:35:51;5.57;;;4.10;;
29044;SDS011;16133;49.486;12.176;2022-08-21T14:38:17;5.18;;;4.25;;
29044;SDS011;16133;49.486;12.176;2022-08-21T14:40:47;6.93;;;4.85;;
29044;SDS011;16133;49.486;12.176;2022-08-21T14:43:16;4.82;;;4.32;;
29044;SDS011;16133;49.486;12.176;2022-08-21T14:45:43;6.13;;;4.43;;
29044;SDS011;16133;49.486;12.176;2022-08-21T14:48:09;5.93;;;4.13;;
29044;SDS011;16133;49.486;12.176;2022-08-21T14:50:34;5.85;;;4.30;;
29044;SDS011;16133;49.486;12.176;2022-08-21T14:53:01;5.97;;;4.97;;
29044;SDS011;16133;49.486;12.176;2022-08-21T14:55:28;4.30;;;3.90;;
29044;SDS011;16133;49.486;12.176;2022-08-21T14:57:54;5.07;;;4.38;;
29044;SDS011;16133;49.486;12.176;2022-08-21T15:00:22;6.25;;;4.43;;
29044;SDS011;16133;49.486;12.176;2022-08-21T15:02:49;6.97;;;4.50;;
29044;SDS011;16133;49.486;12.176;2022-08-21T15:05:15;6.15;;;4.30;;
29044;SDS011;16133;49.486;12.176;2022-08-21T15:07:41;6.05;;;4.80;;
29044;SDS011;16133;49.486;12.176;2022-08-21T15:10:07;4.55;;;4.03;;
29044;SDS011;16133;49.486;12.176;2022-08-21T15:12:33;4.65;;;3.80;;
29044;SDS011;16133;49.486;12.176;2022-08-21T15:14:59;6.13;;;4.32;;
29044;SDS011;16133;49.486;12.176;2022-08-21T15:17:25;4.57;;;3.83;;
29044;SDS011;16133;49.486;12.176;2022-08-21T15:19:51;4.55;;;3.80;;
29044;SDS011;16133;49.486;12.176;2022-08-21T15:22:16;6.25;;;4.20;;
29044;SDS011;16133;49.486;12.176;2022-08-21T15:24:41;4.30;;;3.85;;
29044;SDS011;16133;49.486;12.176;2022-08-21T15:27:07;5.40;;;3.90;;
29044;SDS011;16133;49.486;12.176;2022-08-21T15:29:35;4.60;;;3.70;;
29044;SDS011;16133;49.486;12.176;2022-08-21T15:34:47;3.97;;;3.50;;
29044;SDS011;16133;49.486;12.176;2022-08-21T15:37:14;6.78;;;4.05;;
29044;SDS011;16133;49.486;12.176;2022-08-21T15:39:39;6.03;;;4.00;;
29044;SDS011;16133;49.486;12.176;2022-08-21T15:42:05;5.13;;;3.70;;
29044;SDS011;16133;49.486;12.176;2022-08-21T15:44:31;5.07;;;3.95;;
29044;SDS011;16133;49.486;12.176;2022-08-21T15:46:56;6.10;;;3.97;;
29044;SDS011;16133;49.486;12.176;2022-08-21T15:49:23;4.10;;;3.70;;
29044;SDS011;16133;49.486;12.176;2022-08-21T15:51:48;5.05;;;3.63;;
29044;SDS011;16133;49.486;12.176;2022-08-21T15:54:14;4.05;;;3.50;;
29044;SDS011;16133;49.486;12.176;2022-08-21T15:56:40;4.38;;;3.58;;
29044;SDS011;16133;49.486;12.176;2022-08-21T15:59:15;5.07;;;3.28;;
29044;SDS011;16133;49.486;12.176;2022-08-21T16:04:10;3.65;;;3.17;;
29044;SDS011;16133;49.486;12.176;2022-08-21T16:06:37;4.90;;;3.53;;
29044;SDS011;16133;49.486;12.176;2022-08-21T16:09:03;4.65;;;3.47;;